Terminal Aerodrome Forecast
Issued by NWS St Louis, MO

Home | Current Version | Previous Version | Text Only | Print | Product List | Glossary On
Versions: 1 2 3 4 5 6 7 8 9 10 11 12 13 14 15 16 17 18 19 20 21 22 23 24 25 26
077
FTUS43 KLSX 240307 AAA
TAFSTL
TAF AMD
KSTL 240307Z 2403/2506 VRB04KT P6SM SCT050 BKN100
     FM241300 30007KT P6SM BKN030
     FM241800 31009KT P6SM VCSH BKN035
     FM250100 31006KT P6SM BKN040=

USA.gov is the U.S. government's official web portal to all federal, state and local government web resources and services.